KQEV

Gongju Rws

Gongju Rws, South Korea
METAR KQEV 211400Z AUTO 36001KT 9999 BKN230 16/14 A3002 RMK A02 TSNO
Observed Flight Rules
May-21 @ 14:00 UTC (48 minutes ago) Visual Flight Rules
Wind Visibility Clouds
360° at 1 knots 10,000+ meters
  • Broken at 23,000' AGL
Temperatures Readings
Current 16°C / 61°F
Dewpoint 14°C / 57°F
Humidity 88%
Altimeter 30.02" Hg
Pressure 1017 hPa
METAR KQEV 211400Z AUTO 36001KT 9999 BKN230 16/14 A3002 RMK A02 TSNO
Observed Flight Rules
May-21 @ 14:00 UTC
(48 minutes ago)
VFR
Wind Visibility
360° at 1 knots 10,000+ meters
Clouds
  • Broken at 23,000' AGL
Temperature Dewpoint
16°C / 61°F 14°C / 57°F
Humidity Altimeter Pressure
88% 30.02" Hg 1017 hPa